sensor_id;sensor_type;location;lat;lon;timestamp;temperature;humidity
7822;DHT22;3956;50.558;9.678;2023-01-29T00:00:05;-1.20;1.00
7822;DHT22;3956;50.558;9.678;2023-01-29T00:02:36;-1.20;1.00
7822;DHT22;3956;50.558;9.678;2023-01-29T00:05:06;-1.30;1.00
7822;DHT22;3956;50.558;9.678;2023-01-29T00:07:53;-1.20;1.00
7822;DHT22;3956;50.558;9.678;2023-01-29T00:10:22;-1.30;1.00
7822;DHT22;3956;50.558;9.678;2023-01-29T00:12:52;-1.30;1.00
7822;DHT22;3956;50.558;9.678;2023-01-29T00:15:20;-1.30;1.00
7822;DHT22;3956;50.558;9.678;2023-01-29T00:17:49;-1.30;1.00
7822;DHT22;3956;50.558;9.678;2023-01-29T00:20:17;-1.40;1.00
7822;DHT22;3956;50.558;9.678;2023-01-29T00:22:46;-1.30;1.00
7822;DHT22;3956;50.558;9.678;2023-01-29T00:25:14;-1.30;1.00
7822;DHT22;3956;50.558;9.678;2023-01-29T00:27:43;-1.30;1.00
7822;DHT22;3956;50.558;9.678;2023-01-29T00:30:14;-1.40;1.00
7822;DHT22;3956;50.558;9.678;2023-01-29T00:32:46;-1.40;1.00
7822;DHT22;3956;50.558;9.678;2023-01-29T00:35:14;-1.30;1.00
7822;DHT22;3956;50.558;9.678;2023-01-29T00:37:43;-1.30;1.00
7822;DHT22;3956;50.558;9.678;2023-01-29T00:40:12;-1.20;1.00
7822;DHT22;3956;50.558;9.678;2023-01-29T00:42:43;-1.30;1.00
7822;DHT22;3956;50.558;9.678;2023-01-29T00:45:30;-1.40;1.00
7822;DHT22;3956;50.558;9.678;2023-01-29T00:47:59;-1.40;1.00
7822;DHT22;3956;50.558;9.678;2023-01-29T00:50:28;-1.50;1.00
7822;DHT22;3956;50.558;9.678;2023-01-29T00:52:56;-1.50;1.00
7822;DHT22;3956;50.558;9.678;2023-01-29T00:55:25;-1.50;1.00
7822;DHT22;3956;50.558;9.678;2023-01-29T00:57:53;-1.40;1.00
7822;DHT22;3956;50.558;9.678;2023-01-29T01:00:22;-1.40;1.00
7822;DHT22;3956;50.558;9.678;2023-01-29T01:02:52;-1.40;1.00
7822;DHT22;3956;50.558;9.678;2023-01-29T01:05:32;-1.40;1.00
7822;DHT22;3956;50.558;9.678;2023-01-29T01:08:00;-1.40;1.00
7822;DHT22;3956;50.558;9.678;2023-01-29T01:10:31;-1.30;1.00
7822;DHT22;3956;50.558;9.678;2023-01-29T01:13:00;-1.40;1.00
7822;DHT22;3956;50.558;9.678;2023-01-29T01:15:31;-1.40;1.00
7822;DHT22;3956;50.558;9.678;2023-01-29T01:18:02;-1.40;1.00
7822;DHT22;3956;50.558;9.678;2023-01-29T01:20:33;-1.40;1.00
7822;DHT22;3956;50.558;9.678;2023-01-29T01:23:02;-1.40;1.00
7822;DHT22;3956;50.558;9.678;2023-01-29T01:25:31;-1.50;1.00
7822;DHT22;3956;50.558;9.678;2023-01-29T01:27:59;-1.60;1.00
7822;DHT22;3956;50.558;9.678;2023-01-29T01:30:28;-1.70;1.00
7822;DHT22;3956;50.558;9.678;2023-01-29T01:32:56;-1.70;1.00
7822;DHT22;3956;50.558;9.678;2023-01-29T01:35:27;-1.70;1.00
7822;DHT22;3956;50.558;9.678;2023-01-29T01:37:56;-1.90;1.00
7822;DHT22;3956;50.558;9.678;2023-01-29T01:40:25;-1.90;1.00
7822;DHT22;3956;50.558;9.678;2023-01-29T01:42:56;-1.80;1.00
7822;DHT22;3956;50.558;9.678;2023-01-29T01:45:27;-1.80;1.00
7822;DHT22;3956;50.558;9.678;2023-01-29T01:48:00;-1.70;1.00
7822;DHT22;3956;50.558;9.678;2023-01-29T01:50:34;-1.80;1.00
7822;DHT22;3956;50.558;9.678;2023-01-29T01:53:06;-1.80;1.00
7822;DHT22;3956;50.558;9.678;2023-01-29T01:55:44;-1.90;1.00
7822;DHT22;3956;50.558;9.678;2023-01-29T01:58:51;-1.90;1.00
7822;DHT22;3956;50.558;9.678;2023-01-29T02:02:01;-2.00;1.00
7822;DHT22;3956;50.558;9.678;2023-01-29T02:04:47;-2.00;1.00
7822;DHT22;3956;50.558;9.678;2023-01-29T02:07:40;-2.00;1.00
7822;DHT22;3956;50.558;9.678;2023-01-29T02:10:34;-1.90;1.00
7822;DHT22;3956;50.558;9.678;2023-01-29T02:13:05;-2.00;1.00
7822;DHT22;3956;50.558;9.678;2023-01-29T02:15:34;-2.10;1.00
7822;DHT22;3956;50.558;9.678;2023-01-29T02:18:03;-2.10;1.00
7822;DHT22;3956;50.558;9.678;2023-01-29T02:20:33;-2.10;1.00
7822;DHT22;3956;50.558;9.678;2023-01-29T02:29:30;-2.10;1.00
7822;DHT22;3956;50.558;9.678;2023-01-29T02:32:14;-2.10;1.00
7822;DHT22;3956;50.558;9.678;2023-01-29T02:34:51;-2.20;1.00
7822;DHT22;3956;50.558;9.678;2023-01-29T02:37:53;-2.30;1.00
7822;DHT22;3956;50.558;9.678;2023-01-29T02:40:28;-2.30;1.00
7822;DHT22;3956;50.558;9.678;2023-01-29T02:43:04;-2.30;1.00
7822;DHT22;3956;50.558;9.678;2023-01-29T02:45:43;-2.40;1.00
7822;DHT22;3956;50.558;9.678;2023-01-29T02:48:17;-2.30;1.00
7822;DHT22;3956;50.558;9.678;2023-01-29T02:50:49;-2.40;1.00
7822;DHT22;3956;50.558;9.678;2023-01-29T02:53:26;-2.40;1.00
7822;DHT22;3956;50.558;9.678;2023-01-29T02:56:02;-2.40;1.00
7822;DHT22;3956;50.558;9.678;2023-01-29T02:58:49;-2.40;1.00
7822;DHT22;3956;50.558;9.678;2023-01-29T03:01:28;-2.40;1.00
7822;DHT22;3956;50.558;9.678;2023-01-29T03:04:06;-2.40;1.00
7822;DHT22;3956;50.558;9.678;2023-01-29T03:06:38;-2.40;1.00
7822;DHT22;3956;50.558;9.678;2023-01-29T03:09:12;-2.50;1.00
7822;DHT22;3956;50.558;9.678;2023-01-29T03:11:46;-2.50;1.00
7822;DHT22;3956;50.558;9.678;2023-01-29T03:14:21;-2.50;1.00
7822;DHT22;3956;50.558;9.678;2023-01-29T03:16:53;-2.60;1.00
7822;DHT22;3956;50.558;9.678;2023-01-29T03:19:33;-2.60;1.00
7822;DHT22;3956;50.558;9.678;2023-01-29T03:22:13;-2.60;1.00
7822;DHT22;3956;50.558;9.678;2023-01-29T03:24:47;-2.70;1.00
7822;DHT22;3956;50.558;9.678;2023-01-29T03:27:36;-2.80;1.00
7822;DHT22;3956;50.558;9.678;2023-01-29T03:30:27;-2.70;1.00
7822;DHT22;3956;50.558;9.678;2023-01-29T03:33:18;-2.80;1.00
7822;DHT22;3956;50.558;9.678;2023-01-29T03:35:52;-2.80;1.00
7822;DHT22;3956;50.558;9.678;2023-01-29T03:38:27;-2.80;1.00
7822;DHT22;3956;50.558;9.678;2023-01-29T03:41:06;-2.80;1.00
7822;DHT22;3956;50.558;9.678;2023-01-29T03:43:47;-2.90;1.00
7822;DHT22;3956;50.558;9.678;2023-01-29T03:46:39;-2.90;1.00
7822;DHT22;3956;50.558;9.678;2023-01-29T03:49:20;-2.90;1.00
7822;DHT22;3956;50.558;9.678;2023-01-29T03:51:59;-2.90;1.00
7822;DHT22;3956;50.558;9.678;2023-01-29T03:54:38;-2.90;1.00
7822;DHT22;3956;50.558;9.678;2023-01-29T03:57:14;-2.90;1.00
7822;DHT22;3956;50.558;9.678;2023-01-29T03:59:52;-2.80;1.00
7822;DHT22;3956;50.558;9.678;2023-01-29T04:02:27;-2.80;1.00
7822;DHT22;3956;50.558;9.678;2023-01-29T04:05:03;-2.90;1.00
7822;DHT22;3956;50.558;9.678;2023-01-29T04:07:36;-2.80;1.00
7822;DHT22;3956;50.558;9.678;2023-01-29T04:10:08;-2.80;1.00
7822;DHT22;3956;50.558;9.678;2023-01-29T04:12:42;-2.90;1.00
7822;DHT22;3956;50.558;9.678;2023-01-29T04:15:15;-3.00;1.00
7822;DHT22;3956;50.558;9.678;2023-01-29T04:17:48;-3.10;1.00
7822;DHT22;3956;50.558;9.678;2023-01-29T04:20:19;-3.10;1.00
7822;DHT22;3956;50.558;9.678;2023-01-29T04:22:50;-3.20;1.00
7822;DHT22;3956;50.558;9.678;2023-01-29T04:25:23;-3.30;1.00
7822;DHT22;3956;50.558;9.678;2023-01-29T04:28:03;-3.30;1.00
7822;DHT22;3956;50.558;9.678;2023-01-29T04:30:40;-3.30;1.00
7822;DHT22;3956;50.558;9.678;2023-01-29T04:33:23;-3.20;1.00
7822;DHT22;3956;50.558;9.678;2023-01-29T04:36:18;-3.20;1.00
7822;DHT22;3956;50.558;9.678;2023-01-29T04:38:59;-3.20;1.00
7822;DHT22;3956;50.558;9.678;2023-01-29T04:41:35;-3.20;1.00
7822;DHT22;3956;50.558;9.678;2023-01-29T04:44:09;-3.20;1.00
7822;DHT22;3956;50.558;9.678;2023-01-29T04:46:45;-3.30;1.00
7822;DHT22;3956;50.558;9.678;2023-01-29T04:49:33;-3.30;1.00
7822;DHT22;3956;50.558;9.678;2023-01-29T04:52:11;-3.20;1.00
7822;DHT22;3956;50.558;9.678;2023-01-29T04:54:57;-3.10;1.00
7822;DHT22;3956;50.558;9.678;2023-01-29T04:57:34;-3.10;1.00
7822;DHT22;3956;50.558;9.678;2023-01-29T05:00:06;-3.00;1.00
7822;DHT22;3956;50.558;9.678;2023-01-29T05:02:40;-3.00;1.00
7822;DHT22;3956;50.558;9.678;2023-01-29T05:08:06;-2.90;1.00
7822;DHT22;3956;50.558;9.678;2023-01-29T05:10:36;-2.80;1.00
7822;DHT22;3956;50.558;9.678;2023-01-29T05:13:12;-2.90;1.00
7822;DHT22;3956;50.558;9.678;2023-01-29T05:15:45;-3.10;1.00
7822;DHT22;3956;50.558;9.678;2023-01-29T05:18:15;-3.00;1.00
7822;DHT22;3956;50.558;9.678;2023-01-29T05:20:46;-3.00;1.00
7822;DHT22;3956;50.558;9.678;2023-01-29T05:23:21;-3.00;1.00
7822;DHT22;3956;50.558;9.678;2023-01-29T05:25:56;-3.10;1.00
7822;DHT22;3956;50.558;9.678;2023-01-29T05:28:25;-3.10;1.00
7822;DHT22;3956;50.558;9.678;2023-01-29T05:30:53;-3.00;1.00
7822;DHT22;3956;50.558;9.678;2023-01-29T05:33:28;-3.00;1.00
7822;DHT22;3956;50.558;9.678;2023-01-29T05:35:58;-2.90;1.00
7822;DHT22;3956;50.558;9.678;2023-01-29T05:38:32;-3.00;1.00
7822;DHT22;3956;50.558;9.678;2023-01-29T05:41:02;-3.20;1.00
7822;DHT22;3956;50.558;9.678;2023-01-29T05:43:32;-3.20;1.00
7822;DHT22;3956;50.558;9.678;2023-01-29T05:46:09;-3.10;1.00
7822;DHT22;3956;50.558;9.678;2023-01-29T05:49:04;-3.00;99.90
7822;DHT22;3956;50.558;9.678;2023-01-29T05:51:32;-3.00;1.00
7822;DHT22;3956;50.558;9.678;2023-01-29T05:54:23;-3.00;1.00
7822;DHT22;3956;50.558;9.678;2023-01-29T05:57:00;-3.10;1.00
7822;DHT22;3956;50.558;9.678;2023-01-29T05:59:39;-3.10;84.60
7822;DHT22;3956;50.558;9.678;2023-01-29T06:02:08;-2.90;1.00
7822;DHT22;3956;50.558;9.678;2023-01-29T06:04:38;-2.90;1.00
7822;DHT22;3956;50.558;9.678;2023-01-29T06:07:06;-3.10;99.90
7822;DHT22;3956;50.558;9.678;2023-01-29T06:09:37;-3.10;1.00
7822;DHT22;3956;50.558;9.678;2023-01-29T06:12:05;-3.00;1.00
7822;DHT22;3956;50.558;9.678;2023-01-29T06:14:35;-2.90;92.90
7822;DHT22;3956;50.558;9.678;2023-01-29T06:17:05;-2.90;99.90
7822;DHT22;3956;50.558;9.678;2023-01-29T06:19:35;-3.10;99.90
7822;DHT22;3956;50.558;9.678;2023-01-29T06:22:05;-3.00;99.90
7822;DHT22;3956;50.558;9.678;2023-01-29T06:24:36;-3.10;1.00
7822;DHT22;3956;50.558;9.678;2023-01-29T06:27:06;-3.10;1.00
7822;DHT22;3956;50.558;9.678;2023-01-29T06:29:35;-3.10;1.00
7822;DHT22;3956;50.558;9.678;2023-01-29T06:32:05;-3.00;1.00
7822;DHT22;3956;50.558;9.678;2023-01-29T06:34:33;-3.00;1.00
7822;DHT22;3956;50.558;9.678;2023-01-29T06:37:01;-3.10;1.00
7822;DHT22;3956;50.558;9.678;2023-01-29T06:39:30;-3.10;82.60
7822;DHT22;3956;50.558;9.678;2023-01-29T06:42:00;-3.10;99.90
7822;DHT22;3956;50.558;9.678;2023-01-29T06:44:28;-3.00;99.90
7822;DHT22;3956;50.558;9.678;2023-01-29T06:46:56;-3.10;1.00
7822;DHT22;3956;50.558;9.678;2023-01-29T06:49:24;-3.10;1.00
7822;DHT22;3956;50.558;9.678;2023-01-29T06:51:53;-3.10;1.00
7822;DHT22;3956;50.558;9.678;2023-01-29T06:54:21;-3.10;1.00
7822;DHT22;3956;50.558;9.678;2023-01-29T06:57:04;-3.10;1.00
7822;DHT22;3956;50.558;9.678;2023-01-29T07:04:16;-3.10;1.00
7822;DHT22;3956;50.558;9.678;2023-01-29T07:06:45;-3.10;15.00
7822;DHT22;3956;50.558;9.678;2023-01-29T07:09:14;-3.10;53.40
7822;DHT22;3956;50.558;9.678;2023-01-29T07:11:42;-3.10;99.90
7822;DHT22;3956;50.558;9.678;2023-01-29T07:14:10;-3.10;99.90
7822;DHT22;3956;50.558;9.678;2023-01-29T07:16:39;-3.20;99.90
7822;DHT22;3956;50.558;9.678;2023-01-29T07:19:07;-3.10;1.00
7822;DHT22;3956;50.558;9.678;2023-01-29T07:21:37;-3.10;1.00
7822;DHT22;3956;50.558;9.678;2023-01-29T07:24:06;-3.00;1.00
7822;DHT22;3956;50.558;9.678;2023-01-29T07:26:34;-3.10;1.00
7822;DHT22;3956;50.558;9.678;2023-01-29T07:29:04;-3.10;1.00
7822;DHT22;3956;50.558;9.678;2023-01-29T07:31:32;-3.10;1.00
7822;DHT22;3956;50.558;9.678;2023-01-29T07:34:01;-3.10;1.00
7822;DHT22;3956;50.558;9.678;2023-01-29T07:36:30;-3.10;1.00
7822;DHT22;3956;50.558;9.678;2023-01-29T07:38:59;-3.10;1.00
7822;DHT22;3956;50.558;9.678;2023-01-29T07:41:28;-2.90;1.00
7822;DHT22;3956;50.558;9.678;2023-01-29T07:44:00;-2.90;1.00
7822;DHT22;3956;50.558;9.678;2023-01-29T07:47:05;-3.00;1.00
7822;DHT22;3956;50.558;9.678;2023-01-29T07:50:13;-3.00;1.00
7822;DHT22;3956;50.558;9.678;2023-01-29T07:52:49;-3.00;1.00
7822;DHT22;3956;50.558;9.678;2023-01-29T07:59:43;-2.80;1.00
7822;DHT22;3956;50.558;9.678;2023-01-29T08:02:12;-2.80;1.00
7822;DHT22;3956;50.558;9.678;2023-01-29T08:04:43;-2.90;1.00
7822;DHT22;3956;50.558;9.678;2023-01-29T08:07:11;-2.80;1.00
7822;DHT22;3956;50.558;9.678;2023-01-29T08:09:39;-2.80;1.00
7822;DHT22;3956;50.558;9.678;2023-01-29T08:12:09;-2.80;1.00
7822;DHT22;3956;50.558;9.678;2023-01-29T08:14:40;-2.60;1.00
7822;DHT22;3956;50.558;9.678;2023-01-29T08:17:08;-2.60;1.00
7822;DHT22;3956;50.558;9.678;2023-01-29T08:19:36;-2.80;1.00
7822;DHT22;3956;50.558;9.678;2023-01-29T08:22:06;-2.60;1.00
7822;DHT22;3956;50.558;9.678;2023-01-29T08:24:36;-2.50;1.00
7822;DHT22;3956;50.558;9.678;2023-01-29T08:27:27;-2.50;1.00
7822;DHT22;3956;50.558;9.678;2023-01-29T08:30:03;-2.40;1.00
7822;DHT22;3956;50.558;9.678;2023-01-29T08:32:32;-2.40;1.00
7822;DHT22;3956;50.558;9.678;2023-01-29T08:35:00;-2.60;1.00
7822;DHT22;3956;50.558;9.678;2023-01-29T08:37:30;-2.40;1.00
7822;DHT22;3956;50.558;9.678;2023-01-29T08:40:00;-2.30;1.00
7822;DHT22;3956;50.558;9.678;2023-01-29T08:42:30;-2.70;1.00
7822;DHT22;3956;50.558;9.678;2023-01-29T08:45:11;-2.60;1.00
7822;DHT22;3956;50.558;9.678;2023-01-29T08:47:48;-2.60;1.00
7822;DHT22;3956;50.558;9.678;2023-01-29T08:50:17;-2.50;1.00
7822;DHT22;3956;50.558;9.678;2023-01-29T08:52:56;-2.30;1.00
7822;DHT22;3956;50.558;9.678;2023-01-29T08:55:59;-2.40;1.00
7822;DHT22;3956;50.558;9.678;2023-01-29T08:58:27;-2.40;1.00
7822;DHT22;3956;50.558;9.678;2023-01-29T09:01:05;-2.30;1.00
7822;DHT22;3956;50.558;9.678;2023-01-29T09:03:34;-2.30;1.00
7822;DHT22;3956;50.558;9.678;2023-01-29T09:06:02;-2.20;1.00
7822;DHT22;3956;50.558;9.678;2023-01-29T09:08:33;-2.10;1.00
7822;DHT22;3956;50.558;9.678;2023-01-29T09:11:04;-2.10;1.00
7822;DHT22;3956;50.558;9.678;2023-01-29T09:13:33;-2.10;1.00
7822;DHT22;3956;50.558;9.678;2023-01-29T09:16:06;-2.20;1.00
7822;DHT22;3956;50.558;9.678;2023-01-29T09:18:34;-2.40;1.00
7822;DHT22;3956;50.558;9.678;2023-01-29T09:21:09;-2.20;1.00
7822;DHT22;3956;50.558;9.678;2023-01-29T09:23:45;-2.10;1.00
7822;DHT22;3956;50.558;9.678;2023-01-29T09:26:15;-2.10;1.00
7822;DHT22;3956;50.558;9.678;2023-01-29T09:28:43;-2.00;1.00
7822;DHT22;3956;50.558;9.678;2023-01-29T09:31:13;-2.00;1.00
7822;DHT22;3956;50.558;9.678;2023-01-29T09:33:43;-2.10;1.00
7822;DHT22;3956;50.558;9.678;2023-01-29T09:36:13;-2.10;1.00
7822;DHT22;3956;50.558;9.678;2023-01-29T09:38:47;-2.10;1.00
7822;DHT22;3956;50.558;9.678;2023-01-29T09:41:30;-1.80;1.00
7822;DHT22;3956;50.558;9.678;2023-01-29T09:44:11;-2.20;1.00
7822;DHT22;3956;50.558;9.678;2023-01-29T09:46:45;-2.00;1.00
7822;DHT22;3956;50.558;9.678;2023-01-29T09:49:25;-1.90;1.00
7822;DHT22;3956;50.558;9.678;2023-01-29T09:52:01;-1.80;1.00
7822;DHT22;3956;50.558;9.678;2023-01-29T09:54:39;-1.80;1.00
7822;DHT22;3956;50.558;9.678;2023-01-29T09:57:10;-1.70;1.00
7822;DHT22;3956;50.558;9.678;2023-01-29T10:00:00;-1.70;1.00
7822;DHT22;3956;50.558;9.678;2023-01-29T10:03:32;-1.50;1.00
7822;DHT22;3956;50.558;9.678;2023-01-29T10:06:33;-1.40;1.00
7822;DHT22;3956;50.558;9.678;2023-01-29T10:09:53;-1.30;1.00
7822;DHT22;3956;50.558;9.678;2023-01-29T10:12:50;-1.10;1.00
7822;DHT22;3956;50.558;9.678;2023-01-29T10:15:34;-1.00;99.90
7822;DHT22;3956;50.558;9.678;2023-01-29T10:21:31;-1.00;99.90
7822;DHT22;3956;50.558;9.678;2023-01-29T10:24:15;-1.40;99.90
7822;DHT22;3956;50.558;9.678;2023-01-29T10:26:46;-1.40;99.90
7822;DHT22;3956;50.558;9.678;2023-01-29T10:29:27;-1.50;1.00
7822;DHT22;3956;50.558;9.678;2023-01-29T10:32:18;-1.40;1.00
7822;DHT22;3956;50.558;9.678;2023-01-29T10:35:02;-1.10;1.00
7822;DHT22;3956;50.558;9.678;2023-01-29T10:37:38;-0.80;99.90
7822;DHT22;3956;50.558;9.678;2023-01-29T10:40:31;-1.00;99.90
7822;DHT22;3956;50.558;9.678;2023-01-29T10:43:31;-1.10;99.90
7822;DHT22;3956;50.558;9.678;2023-01-29T10:46:20;-1.20;99.90
7822;DHT22;3956;50.558;9.678;2023-01-29T10:48:59;-0.80;99.90
7822;DHT22;3956;50.558;9.678;2023-01-29T10:52:09;-0.50;99.90
7822;DHT22;3956;50.558;9.678;2023-01-29T10:55:02;-0.50;99.90
7822;DHT22;3956;50.558;9.678;2023-01-29T11:00:22;-0.80;99.90
7822;DHT22;3956;50.558;9.678;2023-01-29T11:03:38;-1.30;99.90
7822;DHT22;3956;50.558;9.678;2023-01-29T11:06:16;-0.70;1.00
7822;DHT22;3956;50.558;9.678;2023-01-29T11:09:05;-0.60;99.90
7822;DHT22;3956;50.558;9.678;2023-01-29T11:11:42;-0.80;99.90
7822;DHT22;3956;50.558;9.678;2023-01-29T11:14:17;-0.60;99.90
7822;DHT22;3956;50.558;9.678;2023-01-29T11:17:03;-0.70;99.90
7822;DHT22;3956;50.558;9.678;2023-01-29T11:19:47;-0.70;99.90
7822;DHT22;3956;50.558;9.678;2023-01-29T11:22:22;-0.80;99.90
7822;DHT22;3956;50.558;9.678;2023-01-29T11:25:09;-0.90;99.90
7822;DHT22;3956;50.558;9.678;2023-01-29T11:27:46;-0.70;99.90
7822;DHT22;3956;50.558;9.678;2023-01-29T11:30:23;-0.50;99.90
7822;DHT22;3956;50.558;9.678;2023-01-29T11:33:10;-0.40;99.90
7822;DHT22;3956;50.558;9.678;2023-01-29T11:35:46;-0.20;99.90
7822;DHT22;3956;50.558;9.678;2023-01-29T11:38:21;-0.20;99.90
7822;DHT22;3956;50.558;9.678;2023-01-29T11:40:53;0.00;99.90
7822;DHT22;3956;50.558;9.678;2023-01-29T11:43:39;-0.30;99.90
7822;DHT22;3956;50.558;9.678;2023-01-29T11:46:33;0.00;99.90
7822;DHT22;3956;50.558;9.678;2023-01-29T11:49:13;0.10;99.90
7822;DHT22;3956;50.558;9.678;2023-01-29T11:56:25;-0.40;99.90
7822;DHT22;3956;50.558;9.678;2023-01-29T11:59:36;-0.30;99.90
7822;DHT22;3956;50.558;9.678;2023-01-29T12:02:37;-0.10;99.90
7822;DHT22;3956;50.558;9.678;2023-01-29T12:05:16;-0.20;99.90
7822;DHT22;3956;50.558;9.678;2023-01-29T12:07:56;0.00;99.90
7822;DHT22;3956;50.558;9.678;2023-01-29T12:10:34;0.00;99.90
7822;DHT22;3956;50.558;9.678;2023-01-29T12:13:26;-0.10;99.90
7822;DHT22;3956;50.558;9.678;2023-01-29T12:16:16;-0.20;99.90
7822;DHT22;3956;50.558;9.678;2023-01-29T12:19:24;-0.30;99.90
7822;DHT22;3956;50.558;9.678;2023-01-29T12:22:08;-0.30;99.90
7822;DHT22;3956;50.558;9.678;2023-01-29T12:24:52;-0.20;99.90
7822;DHT22;3956;50.558;9.678;2023-01-29T12:27:28;-0.40;99.90
7822;DHT22;3956;50.558;9.678;2023-01-29T12:30:04;-0.50;99.90
7822;DHT22;3956;50.558;9.678;2023-01-29T12:32:41;-0.20;99.90
7822;DHT22;3956;50.558;9.678;2023-01-29T12:35:17;0.00;99.90
7822;DHT22;3956;50.558;9.678;2023-01-29T12:37:53;0.20;99.90
7822;DHT22;3956;50.558;9.678;2023-01-29T12:40:26;0.00;99.90
7822;DHT22;3956;50.558;9.678;2023-01-29T12:43:00;0.10;99.90
7822;DHT22;3956;50.558;9.678;2023-01-29T12:45:36;0.00;99.90
7822;DHT22;3956;50.558;9.678;2023-01-29T12:48:15;-0.10;99.90
7822;DHT22;3956;50.558;9.678;2023-01-29T12:50:52;0.00;99.90
7822;DHT22;3956;50.558;9.678;2023-01-29T12:53:27;0.00;99.90
7822;DHT22;3956;50.558;9.678;2023-01-29T12:55:59;-0.30;99.90
7822;DHT22;3956;50.558;9.678;2023-01-29T12:58:32;-0.10;99.90
7822;DHT22;3956;50.558;9.678;2023-01-29T13:01:09;0.20;99.90
7822;DHT22;3956;50.558;9.678;2023-01-29T13:03:58;0.30;99.90
7822;DHT22;3956;50.558;9.678;2023-01-29T13:07:08;0.40;99.90
7822;DHT22;3956;50.558;9.678;2023-01-29T13:09:48;0.30;99.90
7822;DHT22;3956;50.558;9.678;2023-01-29T13:12:23;0.40;99.90
7822;DHT22;3956;50.558;9.678;2023-01-29T13:14:57;0.30;99.90
7822;DHT22;3956;50.558;9.678;2023-01-29T13:17:32;0.00;99.90
7822;DHT22;3956;50.558;9.678;2023-01-29T13:20:10;0.00;99.90
7822;DHT22;3956;50.558;9.678;2023-01-29T13:22:41;0.00;99.90
7822;DHT22;3956;50.558;9.678;2023-01-29T13:25:14;-0.10;99.90
7822;DHT22;3956;50.558;9.678;2023-01-29T13:27:44;0.10;99.90
7822;DHT22;3956;50.558;9.678;2023-01-29T13:30:25;-0.10;99.90
7822;DHT22;3956;50.558;9.678;2023-01-29T13:32:59;0.20;99.90
7822;DHT22;3956;50.558;9.678;2023-01-29T13:35:57;-0.10;99.90
7822;DHT22;3956;50.558;9.678;2023-01-29T13:38:31;0.10;99.90
7822;DHT22;3956;50.558;9.678;2023-01-29T13:41:10;-0.20;99.90
7822;DHT22;3956;50.558;9.678;2023-01-29T13:43:54;0.00;99.90
7822;DHT22;3956;50.558;9.678;2023-01-29T13:46:49;0.20;99.90
7822;DHT22;3956;50.558;9.678;2023-01-29T13:49:32;-0.10;99.90
7822;DHT22;3956;50.558;9.678;2023-01-29T13:52:20;-0.20;99.90
7822;DHT22;3956;50.558;9.678;2023-01-29T13:55:07;0.10;99.90
7822;DHT22;3956;50.558;9.678;2023-01-29T13:58:01;0.20;99.90
7822;DHT22;3956;50.558;9.678;2023-01-29T14:00:54;0.10;99.90
7822;DHT22;3956;50.558;9.678;2023-01-29T14:03:48;0.10;99.90
7822;DHT22;3956;50.558;9.678;2023-01-29T14:06:46;0.10;99.90
7822;DHT22;3956;50.558;9.678;2023-01-29T14:12:51;0.00;99.90
7822;DHT22;3956;50.558;9.678;2023-01-29T14:15:33;-0.10;99.90
7822;DHT22;3956;50.558;9.678;2023-01-29T14:18:21;0.20;99.90
7822;DHT22;3956;50.558;9.678;2023-01-29T14:21:02;0.20;99.90
7822;DHT22;3956;50.558;9.678;2023-01-29T14:23:37;0.10;99.90
7822;DHT22;3956;50.558;9.678;2023-01-29T14:26:29;0.10;99.90
7822;DHT22;3956;50.558;9.678;2023-01-29T14:29:05;0.10;99.90
7822;DHT22;3956;50.558;9.678;2023-01-29T14:31:42;0.20;99.90
7822;DHT22;3956;50.558;9.678;2023-01-29T14:34:23;0.10;99.90
7822;DHT22;3956;50.558;9.678;2023-01-29T14:36:55;0.30;99.90
7822;DHT22;3956;50.558;9.678;2023-01-29T14:42:54;0.10;99.90
7822;DHT22;3956;50.558;9.678;2023-01-29T14:45:26;0.00;99.90
7822;DHT22;3956;50.558;9.678;2023-01-29T14:51:07;-0.10;99.90
7822;DHT22;3956;50.558;9.678;2023-01-29T14:53:52;-0.10;99.90
7822;DHT22;3956;50.558;9.678;2023-01-29T14:56:51;-0.20;99.90
7822;DHT22;3956;50.558;9.678;2023-01-29T14:59:33;-0.20;99.90
7822;DHT22;3956;50.558;9.678;2023-01-29T15:02:18;-0.30;99.90
7822;DHT22;3956;50.558;9.678;2023-01-29T15:04:50;-0.20;99.90
7822;DHT22;3956;50.558;9.678;2023-01-29T15:07:28;-0.20;99.90
7822;DHT22;3956;50.558;9.678;2023-01-29T15:10:03;-0.30;99.90
7822;DHT22;3956;50.558;9.678;2023-01-29T15:12:53;-0.40;99.90
7822;DHT22;3956;50.558;9.678;2023-01-29T15:15:35;-0.50;99.90
7822;DHT22;3956;50.558;9.678;2023-01-29T15:18:08;-0.50;99.90
7822;DHT22;3956;50.558;9.678;2023-01-29T15:20:42;-0.50;99.90
7822;DHT22;3956;50.558;9.678;2023-01-29T15:23:24;-0.40;99.90
7822;DHT22;3956;50.558;9.678;2023-01-29T15:25:56;-0.40;99.90
7822;DHT22;3956;50.558;9.678;2023-01-29T15:28:28;-0.50;1.00
7822;DHT22;3956;50.558;9.678;2023-01-29T15:31:01;-0.50;1.00
7822;DHT22;3956;50.558;9.678;2023-01-29T15:33:35;-0.60;1.00
7822;DHT22;3956;50.558;9.678;2023-01-29T15:36:15;-0.60;1.00
7822;DHT22;3956;50.558;9.678;2023-01-29T15:39:13;-0.70;1.00
7822;DHT22;3956;50.558;9.678;2023-01-29T15:41:41;-0.80;1.00
7822;DHT22;3956;50.558;9.678;2023-01-29T15:44:13;-0.90;1.00
7822;DHT22;3956;50.558;9.678;2023-01-29T15:46:46;-0.70;1.00
7822;DHT22;3956;50.558;9.678;2023-01-29T15:49:23;-0.90;1.00
7822;DHT22;3956;50.558;9.678;2023-01-29T15:51:55;-0.90;1.00
7822;DHT22;3956;50.558;9.678;2023-01-29T15:54:25;-0.90;1.00
7822;DHT22;3956;50.558;9.678;2023-01-29T15:56:55;-0.90;1.00
7822;DHT22;3956;50.558;9.678;2023-01-29T15:59:32;-0.90;1.00
7822;DHT22;3956;50.558;9.678;2023-01-29T16:02:47;-0.90;1.00
7822;DHT22;3956;50.558;9.678;2023-01-29T16:05:39;-1.00;1.00
7822;DHT22;3956;50.558;9.678;2023-01-29T16:08:10;-1.10;1.00
7822;DHT22;3956;50.558;9.678;2023-01-29T16:10:51;-1.10;1.00
7822;DHT22;3956;50.558;9.678;2023-01-29T16:13:23;-1.30;1.00
7822;DHT22;3956;50.558;9.678;2023-01-29T16:16:01;-1.30;1.00
7822;DHT22;3956;50.558;9.678;2023-01-29T16:18:40;-1.20;1.00
7822;DHT22;3956;50.558;9.678;2023-01-29T16:21:29;-1.20;1.00
7822;DHT22;3956;50.558;9.678;2023-01-29T16:24:13;-1.20;1.00
7822;DHT22;3956;50.558;9.678;2023-01-29T16:27:33;-1.30;1.00
7822;DHT22;3956;50.558;9.678;2023-01-29T16:30:58;-1.30;1.00
7822;DHT22;3956;50.558;9.678;2023-01-29T16:37:50;-1.40;1.00
7822;DHT22;3956;50.558;9.678;2023-01-29T16:40:30;-1.40;1.00
7822;DHT22;3956;50.558;9.678;2023-01-29T16:46:26;-1.40;1.00
7822;DHT22;3956;50.558;9.678;2023-01-29T16:52:33;-1.30;1.00
7822;DHT22;3956;50.558;9.678;2023-01-29T16:55:36;-1.30;1.00
7822;DHT22;3956;50.558;9.678;2023-01-29T16:58:12;-1.30;1.00
7822;DHT22;3956;50.558;9.678;2023-01-29T17:00:47;-1.30;1.00
7822;DHT22;3956;50.558;9.678;2023-01-29T17:04:05;-1.30;1.00
7822;DHT22;3956;50.558;9.678;2023-01-29T17:06:56;-1.20;1.00
7822;DHT22;3956;50.558;9.678;2023-01-29T17:09:37;-1.20;1.00
7822;DHT22;3956;50.558;9.678;2023-01-29T17:12:19;-1.10;1.00
7822;DHT22;3956;50.558;9.678;2023-01-29T17:15:32;-1.10;1.00
7822;DHT22;3956;50.558;9.678;2023-01-29T17:18:09;-1.10;1.00
7822;DHT22;3956;50.558;9.678;2023-01-29T17:20:58;-1.10;1.00
7822;DHT22;3956;50.558;9.678;2023-01-29T17:23:58;-1.10;1.00
7822;DHT22;3956;50.558;9.678;2023-01-29T17:26:47;-1.00;1.00
7822;DHT22;3956;50.558;9.678;2023-01-29T17:29:53;-1.10;1.00
7822;DHT22;3956;50.558;9.678;2023-01-29T17:32:28;-1.10;1.00
7822;DHT22;3956;50.558;9.678;2023-01-29T17:35:14;-1.20;1.00
7822;DHT22;3956;50.558;9.678;2023-01-29T17:37:48;-1.20;1.00
7822;DHT22;3956;50.558;9.678;2023-01-29T17:40:28;-1.10;1.00
7822;DHT22;3956;50.558;9.678;2023-01-29T17:43:02;-1.10;1.00
7822;DHT22;3956;50.558;9.678;2023-01-29T17:45:37;-1.20;1.00
7822;DHT22;3956;50.558;9.678;2023-01-29T17:48:11;-1.40;1.00
7822;DHT22;3956;50.558;9.678;2023-01-29T17:50:44;-1.30;1.00
7822;DHT22;3956;50.558;9.678;2023-01-29T17:53:15;-1.30;1.00
7822;DHT22;3956;50.558;9.678;2023-01-29T17:55:43;-1.20;1.00
7822;DHT22;3956;50.558;9.678;2023-01-29T17:58:16;-1.30;1.00
7822;DHT22;3956;50.558;9.678;2023-01-29T18:01:21;-1.30;1.00
7822;DHT22;3956;50.558;9.678;2023-01-29T18:04:56;-1.40;1.00
7822;DHT22;3956;50.558;9.678;2023-01-29T18:07:24;-1.40;1.00
7822;DHT22;3956;50.558;9.678;2023-01-29T18:10:04;-1.50;1.00
7822;DHT22;3956;50.558;9.678;2023-01-29T18:13:13;-1.50;1.00
7822;DHT22;3956;50.558;9.678;2023-01-29T18:15:43;-1.50;1.00